Time,TemperatureF,DewpointF,PressureIn,WindDirection,WindDirectionDegrees,WindSpeedMPH,WindSpeedGustMPH,Humidity,HourlyPrecipIn,Conditions,Clouds,dailyrainin,SoftwareType,DateUTC
2013-06-26 00:08:00,66.6,65.0,30.09,SW,222,0.0,0.0,94,0.00,,,0.00,weatherlink.com 1.10,2013-06-26 04:08:00,
2013-06-26 00:24:00,66.0,64.0,30.09,SW,222,0.0,0.0,94,0.00,,,0.00,weatherlink.com 1.10,2013-06-26 04:24:00,
2013-06-26 00:39:00,65.8,64.0,30.09,SW,222,0.0,0.0,95,0.00,,,0.00,weatherlink.com 1.10,2013-06-26 04:39:00,
2013-06-26 00:54:00,65.6,64.0,30.08,SW,222,0.0,0.0,95,0.00,,,0.00,weatherlink.com 1.10,2013-06-26 04:54:00,
2013-06-26 01:09:00,65.3,64.0,30.08,SW,222,0.0,0.0,95,0.00,,,0.00,weatherlink.com 1.10,2013-06-26 05:09:00,
2013-06-26 01:24:00,65.1,64.0,30.07,SW,222,0.0,0.0,96,0.00,,,0.00,weatherlink.com 1.10,2013-06-26 05:24:00,
2013-06-26 01:39:00,64.9,64.0,30.07,SW,222,0.0,0.0,96,0.00,,,0.00,weatherlink.com 1.10,2013-06-26 05:39:00,
2013-06-26 01:54:00,64.9,64.0,30.08,SW,222,0.0,0.0,96,0.00,,,0.00,weatherlink.com 1.10,2013-06-26 05:54:00,
2013-06-26 02:09:00,64.6,64.0,30.07,SW,222,0.0,0.0,96,0.00,,,0.00,weatherlink.com 1.10,2013-06-26 06:09:00,
2013-06-26 02:24:00,64.5,63.0,30.06,SW,222,0.0,0.0,96,0.00,,,0.00,weatherlink.com 1.10,2013-06-26 06:24:00,
2013-06-26 02:39:00,63.8,63.0,30.07,SW,222,0.0,0.0,96,0.00,,,0.00,weatherlink.com 1.10,2013-06-26 06:39:00,
2013-06-26 02:54:00,63.8,63.0,30.06,SW,222,0.0,0.0,97,0.00,,,0.00,weatherlink.com 1.10,2013-06-26 06:54:00,
2013-06-26 03:09:00,63.4,62.0,30.05,SW,222,0.0,0.0,96,0.00,,,0.00,weatherlink.com 1.10,2013-06-26 07:09:00,
2013-06-26 03:24:00,63.1,62.0,30.05,SW,222,0.0,0.0,96,0.00,,,0.00,weatherlink.com 1.10,2013-06-26 07:24:00,
2013-06-26 03:39:00,62.8,62.0,30.05,SW,222,0.0,0.0,97,0.00,,,0.00,weatherlink.com 1.10,2013-06-26 07:39:00,
2013-06-26 03:54:00,63.0,62.0,30.05,SW,222,0.0,0.0,97,0.00,,,0.00,weatherlink.com 1.10,2013-06-26 07:54:00,
2013-06-26 04:09:00,62.8,62.0,30.05,SW,222,0.0,0.0,97,0.00,,,0.00,weatherlink.com 1.10,2013-06-26 08:09:00,
2013-06-26 04:24:00,62.5,62.0,30.05,SW,222,0.0,0.0,97,0.00,,,0.00,weatherlink.com 1.10,2013-06-26 08:24:00,
2013-06-26 04:39:00,62.4,62.0,30.06,SW,222,0.0,0.0,97,0.00,,,0.00,weatherlink.com 1.10,2013-06-26 08:39:00,
2013-06-26 04:54:00,62.5,62.0,30.05,SW,222,0.0,0.0,97,0.00,,,0.00,weatherlink.com 1.10,2013-06-26 08:54:00,
2013-06-26 05:09:00,61.9,61.0,30.07,SW,222,0.0,0.0,97,0.00,,,0.00,weatherlink.com 1.10,2013-06-26 09:09:00,
2013-06-26 05:24:00,61.6,61.0,30.07,SW,222,0.0,0.0,97,0.00,,,0.00,weatherlink.com 1.10,2013-06-26 09:24:00,
2013-06-26 05:39:00,61.4,61.0,30.07,SW,222,0.0,0.0,97,0.00,,,0.00,weatherlink.com 1.10,2013-06-26 09:39:00,
2013-06-26 05:54:00,61.7,61.0,30.08,SW,222,0.0,0.0,98,0.00,,,0.00,weatherlink.com 1.10,2013-06-26 09:54:00,
2013-06-26 06:09:00,61.7,61.0,30.08,SW,222,0.0,0.0,98,0.00,,,0.00,weatherlink.com 1.10,2013-06-26 10:09:00,
2013-06-26 06:24:00,62.0,62.0,30.09,SW,222,0.0,0.0,98,0.00,,,0.00,weatherlink.com 1.10,2013-06-26 10:24:00,
2013-06-26 06:39:00,62.4,62.0,30.09,SW,222,0.0,0.0,98,0.00,,,0.00,weatherlink.com 1.10,2013-06-26 10:39:00,
2013-06-26 06:54:00,62.3,62.0,30.09,SW,222,0.0,0.0,98,0.00,,,0.00,weatherlink.com 1.10,2013-06-26 10:54:00,
2013-06-26 07:09:00,61.8,61.0,30.09,SW,222,0.0,0.0,97,0.00,,,0.00,weatherlink.com 1.10,2013-06-26 11:09:00,
2013-06-26 07:24:00,61.6,61.0,30.09,SW,222,0.0,0.0,98,0.00,,,0.00,weatherlink.com 1.10,2013-06-26 11:24:00,
2013-06-26 07:39:00,61.9,61.0,30.10,SW,222,0.0,0.0,98,0.00,,,0.00,weatherlink.com 1.10,2013-06-26 11:39:00,
2013-06-26 07:54:00,63.4,63.0,30.09,SW,222,0.0,0.0,98,0.00,,,0.00,weatherlink.com 1.10,2013-06-26 11:54:00,
2013-06-26 08:09:00,64.8,64.0,30.09,SW,222,0.0,0.0,98,0.00,,,0.00,weatherlink.com 1.10,2013-06-26 12:09:00,
2013-06-26 08:24:00,66.2,65.0,30.09,SW,236,0.0,0.0,96,0.00,,,0.00,weatherlink.com 1.10,2013-06-26 12:24:00,
2013-06-26 08:39:00,68.1,66.0,30.10,SW,236,0.0,0.0,93,0.00,,,0.00,weatherlink.com 1.10,2013-06-26 12:39:00,
2013-06-26 08:54:00,70.4,68.0,30.10,SW,236,0.0,0.0,91,0.00,,,0.00,weatherlink.com 1.10,2013-06-26 12:54:00,
2013-06-26 09:09:00,72.6,68.0,30.09,SW,236,0.0,0.0,86,0.00,,,0.00,weatherlink.com 1.10,2013-06-26 13:09:00,
2013-06-26 09:24:00,73.9,69.0,30.09,SW,236,0.0,0.0,85,0.00,,,0.00,weatherlink.com 1.10,2013-06-26 13:24:00,
2013-06-26 09:39:00,74.7,69.0,30.09,SW,236,0.0,0.0,81,0.00,,,0.00,weatherlink.com 1.10,2013-06-26 13:39:00,
2013-06-26 09:55:00,76.5,70.0,30.08,WSW,239,0.0,0.0,80,0.00,,,0.00,weatherlink.com 1.10,2013-06-26 13:55:00,
2013-06-26 10:10:00,78.1,70.0,30.07,West,264,0.0,0.0,76,0.00,,,0.00,weatherlink.com 1.10,2013-06-26 14:10:00,
2013-06-26 10:25:00,78.3,69.0,30.07,WSW,253,0.0,0.0,72,0.00,,,0.00,weatherlink.com 1.10,2013-06-26 14:25:00,
2013-06-26 10:40:00,79.3,70.0,30.06,WSW,242,0.0,0.0,72,0.00,,,0.00,weatherlink.com 1.10,2013-06-26 14:40:00,
2013-06-26 10:55:00,80.1,69.0,30.07,ESE,117,0.0,0.0,69,0.00,,,0.00,weatherlink.com 1.10,2013-06-26 14:55:00,
2013-06-26 11:10:00,80.0,70.0,30.07,South,184,0.0,0.0,72,0.00,,,0.00,weatherlink.com 1.10,2013-06-26 15:10:00,
2013-06-26 11:25:00,80.0,69.0,30.07,WSW,256,0.0,0.0,69,0.00,,,0.00,weatherlink.com 1.10,2013-06-26 15:25:00,
2013-06-26 11:40:00,79.8,69.0,30.07,West,273,0.0,0.0,70,0.00,,,0.00,weatherlink.com 1.10,2013-06-26 15:40:00,
2013-06-26 11:55:00,79.9,69.0,30.06,WSW,250,0.0,0.0,70,0.00,,,0.00,weatherlink.com 1.10,2013-06-26 15:55:00,
2013-06-26 12:10:00,80.3,70.0,30.06,West,262,0.0,0.0,70,0.00,,,0.00,weatherlink.com 1.10,2013-06-26 16:10:00,
2013-06-26 12:25:00,79.9,71.0,30.06,WSW,258,0.0,0.0,73,0.00,,,0.00,weatherlink.com 1.10,2013-06-26 16:25:00,
2013-06-26 12:40:00,80.1,70.0,30.06,NW,311,0.0,0.0,70,0.00,,,0.00,weatherlink.com 1.10,2013-06-26 16:40:00,
2013-06-26 12:55:00,80.9,68.0,30.06,West,271,0.0,0.0,66,0.00,,,0.00,weatherlink.com 1.10,2013-06-26 16:55:00,
2013-06-26 13:10:00,80.8,67.0,30.05,WSW,250,0.0,0.0,64,0.00,,,0.00,weatherlink.com 1.10,2013-06-26 17:10:00,
2013-06-26 13:25:00,81.7,70.0,30.05,SSE,159,0.0,0.0,67,0.00,,,0.00,weatherlink.com 1.10,2013-06-26 17:25:00,
2013-06-26 13:40:00,81.4,69.0,30.05,South,177,0.0,0.0,67,0.00,,,0.00,weatherlink.com 1.10,2013-06-26 17:40:00,
2013-06-26 13:55:00,80.9,70.0,30.04,West,261,0.0,0.0,69,0.00,,,0.00,weatherlink.com 1.10,2013-06-26 17:55:00,
2013-06-26 14:10:00,79.6,68.0,30.03,West,261,0.0,11.0,68,0.00,,,0.00,weatherlink.com 1.10,2013-06-26 18:10:00,
2013-06-26 14:25:00,80.3,68.0,30.03,SW,226,1.0,4.0,67,0.00,,,0.00,weatherlink.com 1.10,2013-06-26 18:25:00,
2013-06-26 14:40:00,80.7,69.0,30.03,West,275,1.0,3.0,68,0.00,,,0.00,weatherlink.com 1.10,2013-06-26 18:40:00,
2013-06-26 14:55:00,80.7,70.0,30.02,WSW,254,1.0,4.0,69,0.00,,,0.00,weatherlink.com 1.10,2013-06-26 18:55:00,
2013-06-26 15:10:00,81.5,70.0,30.01,West,263,0.0,2.0,69,0.00,,,0.00,weatherlink.com 1.10,2013-06-26 19:10:00,
2013-06-26 15:25:00,81.4,71.0,30.00,West,263,0.0,2.0,70,0.00,,,0.00,weatherlink.com 1.10,2013-06-26 19:25:00,
2013-06-26 15:40:00,81.5,70.0,30.01,WSW,255,0.0,6.0,69,0.00,,,0.00,weatherlink.com 1.10,2013-06-26 19:40:00,
2013-06-26 15:55:00,81.6,71.0,30.00,WSW,258,0.0,5.0,69,0.00,,,0.00,weatherlink.com 1.10,2013-06-26 19:55:00,
2013-06-26 16:10:00,80.2,70.0,30.00,SW,229,1.0,3.0,71,0.00,,,0.00,weatherlink.com 1.10,2013-06-26 20:10:00,
2013-06-26 16:25:00,79.8,71.0,29.99,WNW,288,0.0,4.0,74,0.00,,,0.00,weatherlink.com 1.10,2013-06-26 20:25:00,
2013-06-26 16:40:00,79.9,71.0,29.99,WSW,245,1.0,3.0,74,0.00,,,0.00,weatherlink.com 1.10,2013-06-26 20:40:00,
2013-06-26 16:55:00,80.5,70.0,30.00,WSW,248,0.0,2.0,71,0.00,,,0.00,weatherlink.com 1.10,2013-06-26 20:55:00,
2013-06-26 17:10:00,80.3,71.0,29.98,WSW,250,0.0,1.0,72,0.00,,,0.00,weatherlink.com 1.10,2013-06-26 21:10:00,
2013-06-26 17:25:00,79.1,71.0,29.98,WSW,250,0.0,1.0,76,0.00,,,0.00,weatherlink.com 1.10,2013-06-26 21:25:00,
2013-06-26 17:40:00,78.2,70.0,29.98,WSW,250,0.0,0.0,76,0.00,,,0.00,weatherlink.com 1.10,2013-06-26 21:40:00,
2013-06-26 17:55:00,77.4,70.0,29.98,West,269,0.0,4.0,77,0.00,,,0.00,weatherlink.com 1.10,2013-06-26 21:55:00,
2013-06-26 18:10:00,77.0,70.0,29.97,West,269,1.0,2.0,79,0.00,,,0.00,weatherlink.com 1.10,2013-06-26 22:10:00,
2013-06-26 18:25:00,76.2,69.0,29.98,West,269,0.0,3.0,79,0.00,,,0.00,weatherlink.com 1.10,2013-06-26 22:25:00,
2013-06-26 18:40:00,75.8,69.0,29.98,West,269,0.0,1.0,79,0.00,,,0.00,weatherlink.com 1.10,2013-06-26 22:40:00,
2013-06-26 18:55:00,75.9,69.0,29.99,West,269,0.0,0.0,79,0.00,,,0.00,weatherlink.com 1.10,2013-06-26 22:55:00,
2013-06-26 19:10:00,75.8,69.0,29.99,West,269,0.0,0.0,79,0.00,,,0.00,weatherlink.com 1.10,2013-06-26 23:10:00,
2013-06-26 19:25:00,75.7,69.0,29.97,West,269,0.0,0.0,80,0.00,,,0.00,weatherlink.com 1.10,2013-06-26 23:25:00,
2013-06-26 19:40:00,75.7,70.0,29.98,West,269,0.0,0.0,81,0.00,,,0.00,weatherlink.com 1.10,2013-06-26 23:40:00,
2013-06-26 19:55:00,75.5,70.0,29.98,West,269,0.0,0.0,82,0.00,,,0.00,weatherlink.com 1.10,2013-06-26 23:55:00,
2013-06-26 20:10:00,75.5,69.0,29.98,West,269,0.0,0.0,81,0.00,,,0.00,weatherlink.com 1.10,2013-06-27 00:10:00,
2013-06-26 20:25:00,75.0,69.0,29.98,West,269,0.0,0.0,82,0.00,,,0.00,weatherlink.com 1.10,2013-06-27 00:25:00,
2013-06-26 20:40:00,74.2,69.0,29.97,West,269,0.0,2.0,84,0.00,,,0.00,weatherlink.com 1.10,2013-06-27 00:40:00,
2013-06-26 20:55:00,73.7,69.0,29.98,West,269,0.0,0.0,85,0.00,,,0.00,weatherlink.com 1.10,2013-06-27 00:55:00,
2013-06-26 21:10:00,73.2,69.0,29.97,West,269,0.0,1.0,87,0.00,,,0.00,weatherlink.com 1.10,2013-06-27 01:10:00,
2013-06-26 21:25:00,72.5,69.0,29.98,West,269,0.0,0.0,88,0.00,,,0.00,weatherlink.com 1.10,2013-06-27 01:25:00,
2013-06-26 21:40:00,71.9,69.0,29.98,West,269,0.0,0.0,89,0.00,,,0.00,weatherlink.com 1.10,2013-06-27 01:40:00,
2013-06-26 21:55:00,71.2,68.0,29.98,West,269,0.0,0.0,90,0.00,,,0.00,weatherlink.com 1.10,2013-06-27 01:55:00,
2013-06-26 22:10:00,70.5,68.0,29.99,West,269,0.0,1.0,91,0.00,,,0.00,weatherlink.com 1.10,2013-06-27 02:10:00,
2013-06-26 22:26:00,70.1,67.0,29.99,West,269,0.0,0.0,91,0.00,,,0.00,weatherlink.com 1.10,2013-06-27 02:26:00,
2013-06-26 22:41:00,69.6,67.0,29.99,West,269,0.0,0.0,91,0.00,,,0.00,weatherlink.com 1.10,2013-06-27 02:41:00,
2013-06-26 22:56:00,69.2,67.0,29.99,West,269,0.0,0.0,92,0.00,,,0.00,weatherlink.com 1.10,2013-06-27 02:56:00,
2013-06-26 23:11:00,68.8,67.0,29.99,West,269,0.0,0.0,93,0.00,,,0.00,weatherlink.com 1.10,2013-06-27 03:11:00,
2013-06-26 23:26:00,68.4,67.0,30.00,West,269,0.0,1.0,94,0.00,,,0.00,weatherlink.com 1.10,2013-06-27 03:26:00,
2013-06-26 23:41:00,68.2,67.0,30.00,West,269,0.0,1.0,95,0.00,,,0.00,weatherlink.com 1.10,2013-06-27 03:41:00,
2013-06-26 23:56:00,68.1,67.0,30.00,West,269,0.0,0.0,95,0.00,,,0.00,weatherlink.com 1.10,2013-06-27 03:56:00,